Time;durP1;ratioP1;P1;durP2;ratioP2;P2;SDS_P1;SDS_P2;PMS_P1;PMS_P2;Temp;Humidity;BMP_temperature;BMP_pressure;BME280_temperature;BME280_humidity;BME280_pressure;Samples;Min_cycle;Max_cycle;Signal;HPM_P1;HPM_P2
2022/06/14 00:01:57;;;;;;;12.43;11.53;;;;;;;16.81;99.11;92811.31;5028471;28;20221;-78
2022/06/14 00:04:23;;;;;;;13.30;12.40;;;;;;;16.68;99.43;92820.94;5028845;28;20182;-78
2022/06/14 00:06:48;;;;;;;13.00;11.97;;;;;;;16.65;99.74;92815.50;5028715;28;20214;-77
2022/06/14 00:09:14;;;;;;;14.07;12.97;;;;;;;16.66;100.00;92823.09;5029008;28;20226;-77
2022/06/14 00:11:40;;;;;;;12.30;11.50;;;;;;;16.68;100.00;92820.94;5028279;28;20555;-77
2022/06/14 00:14:08;;;;;;;13.53;12.57;;;;;;;16.65;100.00;92824.19;5028396;28;20190;-77
2022/06/14 00:16:34;;;;;;;12.80;12.00;;;;;;;16.60;100.00;92819.06;5027415;28;20232;-78
2022/06/14 00:19:04;;;;;;;13.13;12.23;;;;;;;16.71;99.67;92820.31;5029004;28;20187;-78
2022/06/14 00:21:30;;;;;;;12.37;11.47;;;;;;;16.44;99.83;92788.97;5028267;28;20231;-77
2022/06/14 00:23:55;;;;;;;14.00;13.00;;;;;;;16.56;99.32;92797.03;5030682;28;20187;-77
2022/06/14 00:26:21;;;;;;;13.43;12.43;;;;;;;16.70;99.13;92818.75;5031858;28;20229;-77
2022/06/14 00:28:47;;;;;;;13.33;12.33;;;;;;;16.72;99.48;92815.78;5032636;28;20195;-78
2022/06/14 00:31:17;;;;;;;12.27;11.37;;;;;;;16.61;100.00;92815.34;5031857;28;20218;-78
2022/06/14 00:33:43;;;;;;;13.37;12.10;;;;;;;16.64;100.00;92819.22;5032123;28;20205;-78
2022/06/14 00:36:20;;;;;;;12.83;12.03;;;;;;;16.50;100.00;92803.53;5031996;28;20249;-78
2022/06/14 00:38:45;;;;;;;12.67;11.63;;;;;;;16.42;100.00;92814.06;5032004;28;20179;-78
2022/06/14 00:41:26;;;;;;;13.30;12.40;;;;;;;16.55;100.00;92805.25;5031629;28;20225;-78
2022/06/14 00:43:51;;;;;;;13.30;12.30;;;;;;;16.51;100.00;92802.47;5032364;28;20186;-77
2022/06/14 00:46:20;;;;;;;13.67;12.67;;;;;;;16.49;100.00;92806.50;5031994;28;20277;-77
2022/06/14 00:48:53;;;;;;;13.23;12.13;;;;;;;16.43;99.86;92797.94;5032389;28;20210;-78
2022/06/14 00:51:32;;;;;;;12.33;11.53;;;;;;;16.61;99.72;92822.47;5032019;28;20229;-78
2022/06/14 00:54:25;;;;;;;12.70;11.90;;;;;;;16.60;99.63;92818.28;5032323;28;20178;-78
2022/06/14 00:57:05;;;;;;;13.63;12.70;;;;;;;16.60;99.19;92805.88;5031997;28;20233;-78
2022/06/14 00:59:44;;;;;;;13.00;12.10;;;;;;;16.60;99.70;92823.56;5032067;28;20258;-78
2022/06/14 01:02:30;;;;;;;13.13;12.03;;;;;;;16.53;99.70;92829.28;5031512;28;20218;-78
2022/06/14 01:05:01;;;;;;;13.67;12.67;;;;;;;16.41;100.00;92805.38;5031087;28;20221;-78
2022/06/14 01:07:33;;;;;;;12.50;11.70;;;;;;;16.39;100.00;92807.53;5031212;28;20223;-78
2022/06/14 01:10:12;;;;;;;12.40;11.57;;;;;;;16.52;100.00;92832.22;5031496;28;20214;-78
2022/06/14 01:12:43;;;;;;;13.43;12.43;;;;;;;16.38;100.00;92829.72;5029860;28;20226;-76
2022/06/14 01:15:16;;;;;;;12.73;11.93;;;;;;;16.33;100.00;92829.84;5031214;28;20175;-78
2022/06/14 01:17:46;;;;;;;13.33;12.43;;;;;;;16.34;100.00;92828.00;5031537;28;20206;-78
2022/06/14 01:20:14;;;;;;;13.67;12.53;;;;;;;16.30;100.00;92822.56;5031636;28;20245;-77
2022/06/14 01:22:40;;;;;;;12.77;11.87;;;;;;;16.29;100.00;92822.88;5030574;28;20220;-78
2022/06/14 01:25:07;;;;;;;12.97;12.07;;;;;;;16.20;100.00;92814.19;5030587;28;20183;-78
2022/06/14 01:27:35;;;;;;;12.87;11.97;;;;;;;16.12;100.00;92807.81;5030297;28;20241;-78
2022/06/14 01:30:06;;;;;;;13.07;12.17;;;;;;;16.01;100.00;92767.84;5031551;28;20218;-78
2022/06/14 01:32:39;;;;;;;12.57;11.77;;;;;;;16.10;100.00;92788.91;5029028;28;20238;-78
2022/06/14 01:35:10;;;;;;;12.93;12.07;;;;;;;16.23;100.00;92813.56;5031033;28;20218;-78
2022/06/14 01:37:36;;;;;;;13.73;12.77;;;;;;;15.98;100.00;92757.88;5030089;28;20246;-78
2022/06/14 01:40:05;;;;;;;13.23;12.27;;;;;;;16.08;100.00;92780.53;5031650;28;20195;-77
2022/06/14 01:42:45;;;;;;;13.93;12.93;;;;;;;16.20;100.00;92814.97;5028871;28;20257;-78
2022/06/14 01:45:16;;;;;;;15.07;12.53;;;;;;;16.20;100.00;92808.91;5030896;28;20246;-78
2022/06/14 01:47:50;;;;;;;14.17;13.17;;;;;;;16.15;100.00;92816.94;5029833;28;20215;-78
2022/06/14 01:53:21;;;;;;;13.47;12.33;;;;;;;16.25;100.00;92814.03;5030571;28;20201;-78
2022/06/14 01:55:59;;;;;;;13.93;12.93;;;;;;;16.02;100.00;92800.19;5029785;28;20243;-78
2022/06/14 01:58:34;;;;;;;13.53;12.53;;;;;;;16.04;100.00;92817.25;5030763;28;20178;-78
2022/06/14 02:01:09;;;;;;;12.20;11.47;;;;;;;15.98;100.00;92796.63;5027455;28;20214;-78
2022/06/14 02:07:18;;;;;;;13.70;12.70;;;;;;;15.94;100.00;92795.66;5030221;28;20257;-78
2022/06/14 02:09:55;;;;;;;14.20;13.27;;;;;;;16.03;100.00;92814.94;5029655;28;20238;-77
2022/06/14 02:12:35;;;;;;;14.73;13.40;;;;;;;15.90;100.00;92800.00;5028115;28;20892;-78
2022/06/14 02:15:34;;;;;;;13.77;12.57;;;;;;;16.00;100.00;92818.94;5029709;28;20205;-77
2022/06/14 02:18:10;;;;;;;13.27;12.23;;;;;;;15.91;100.00;92809.44;5029591;28;20211;-78
2022/06/14 02:20:47;;;;;;;13.63;12.73;;;;;;;15.95;100.00;92821.69;5028391;28;20253;-78
2022/06/14 02:23:13;;;;;;;14.00;12.80;;;;;;;15.94;100.00;92824.63;5030451;28;20194;-78
2022/06/14 02:25:52;;;;;;;14.47;13.30;;;;;;;15.94;100.00;92833.31;5029513;28;21127;-77
2022/06/14 02:28:24;;;;;;;14.03;13.03;;;;;;;15.79;100.00;92830.31;5030077;28;20278;-77
2022/06/14 02:30:56;;;;;;;14.10;13.07;;;;;;;15.69;100.00;92809.53;5027873;28;20215;-78
2022/06/14 02:33:39;;;;;;;13.97;13.07;;;;;;;15.58;100.00;92816.16;5027334;28;20194;-78
2022/06/14 02:36:15;;;;;;;14.03;12.93;;;;;;;15.87;100.00;92843.53;5029176;28;20222;-78
2022/06/14 02:38:56;;;;;;;13.30;12.37;;;;;;;15.83;100.00;92847.06;5029704;28;20861;-77
2022/06/14 02:41:33;;;;;;;13.43;12.50;;;;;;;15.80;100.00;92843.19;5028751;28;20731;-78
2022/06/14 02:44:12;;;;;;;13.10;12.10;;;;;;;15.72;100.00;92827.38;5029212;28;20193;-77
2022/06/14 02:46:51;;;;;;;12.43;11.33;;;;;;;15.60;100.00;92835.03;5028692;28;20218;-79
2022/06/14 02:49:30;;;;;;;12.90;11.83;;;;;;;15.67;100.00;92848.56;5030112;28;20214;-78
2022/06/14 02:52:12;;;;;;;13.77;12.77;;;;;;;15.63;100.00;92839.69;5029038;28;21134;-78
2022/06/14 02:54:44;;;;;;;13.20;12.20;;;;;;;15.51;100.00;92797.38;5029995;28;20198;-78
2022/06/14 02:57:42;;;;;;;13.50;12.40;;;;;;;15.93;100.00;92854.69;5029143;28;20222;-78
2022/06/14 03:00:14;;;;;;;13.40;12.40;;;;;;;15.74;100.00;92822.56;5028909;28;20194;-79
2022/06/14 03:02:44;;;;;;;14.13;12.93;;;;;;;15.87;100.00;92837.50;5029084;28;20245;-77
2022/06/14 03:05:23;;;;;;;13.70;12.50;;;;;;;15.92;100.00;92842.63;5029942;28;20217;-78
2022/06/14 03:07:57;;;;;;;12.67;11.57;;;;;;;16.13;100.00;92856.78;5027593;28;20281;-78
2022/06/14 03:10:27;;;;;;;13.80;12.37;;;;;;;17.12;97.33;92854.13;5028542;28;20274;-79
2022/06/14 03:13:07;;;;;;;12.73;11.93;;;;;;;17.94;89.73;92853.78;5029492;28;20241;-78
2022/06/14 03:15:38;;;;;;;12.87;11.97;;;;;;;18.77;84.76;92860.84;5027654;28;20248;-78
2022/06/14 03:18:30;;;;;;;12.80;11.60;;;;;;;19.56;80.05;92887.13;5029048;28;20221;-78
2022/06/14 03:21:05;;;;;;;12.33;11.40;;;;;;;20.00;76.07;92855.31;5027366;28;21143;-78
2022/06/14 03:23:43;;;;;;;11.80;10.97;;;;;;;19.74;76.74;92876.03;5029707;28;20190;-78
2022/06/14 03:26:33;;;;;;;12.33;11.27;;;;;;;19.94;77.41;92885.78;5028530;28;20245;-78
2022/06/14 03:29:15;;;;;;;13.00;12.10;;;;;;;19.12;80.01;92886.72;5027834;28;20202;-78
2022/06/14 03:32:02;;;;;;;12.10;11.20;;;;;;;19.33;80.17;92862.88;5029020;28;20227;-79
2022/06/14 03:34:52;;;;;;;11.73;10.73;;;;;;;20.03;77.95;92878.50;5029238;28;20195;-78
2022/06/14 03:37:18;;;;;;;11.27;10.40;;;;;;;20.94;72.66;92858.59;5027312;28;20235;-78
2022/06/14 03:39:56;;;;;;;11.33;10.63;;;;;;;21.49;70.90;92864.78;5030229;28;20212;-78
2022/06/14 03:42:22;;;;;;;12.07;10.50;;;;;;;22.02;67.49;92844.91;5029143;28;20308;-75
2022/06/14 03:44:49;;;;;;;12.20;11.40;;;;;;;21.42;70.10;92874.41;5027669;28;20186;-78
2022/06/14 03:47:28;;;;;;;11.83;10.87;;;;;;;20.98;72.97;92870.13;5028898;28;20223;-79
2022/06/14 03:49:59;;;;;;;11.47;10.67;;;;;;;20.59;74.01;92864.41;5029226;28;20957;-77
2022/06/14 03:52:36;;;;;;;10.87;10.17;;;;;;;20.56;74.05;92873.03;5027997;28;20285;-78
2022/06/14 03:55:18;;;;;;;11.43;10.67;;;;;;;21.01;72.46;92874.78;5029378;28;20197;-78
2022/06/14 03:57:55;;;;;;;10.87;10.17;;;;;;;20.96;71.64;92869.69;5028811;28;20222;-78
2022/06/14 04:00:50;;;;;;;11.05;10.25;;;;;;;21.12;70.91;92849.31;5032559;28;20181;-78
2022/06/14 04:03:42;;;;;;;11.37;10.57;;;;;;;20.65;73.60;92876.34;5032572;28;20225;-78
2022/06/14 04:06:35;;;;;;;10.83;10.20;;;;;;;20.44;75.31;92878.34;5031142;28;20233;-79
2022/06/14 04:09:19;;;;;;;12.53;11.63;;;;;;;20.38;76.55;92882.34;5032179;28;20314;-78
2022/06/14 04:11:57;;;;;;;11.97;10.97;;;;;;;19.90;79.59;92878.81;5032059;28;20303;-79
2022/06/14 04:14:45;;;;;;;13.57;12.37;;;;;;;19.48;82.68;92888.75;5033181;28;20199;-78
2022/06/14 04:17:23;;;;;;;13.90;12.70;;;;;;;18.85;87.24;92900.44;5031040;28;20211;-78
2022/06/14 04:20:11;;;;;;;13.97;12.87;;;;;;;18.89;88.18;92900.56;5032219;28;20212;-78
2022/06/14 04:22:57;;;;;;;14.07;13.07;;;;;;;19.17;86.37;92898.97;5031774;28;20221;-78
2022/06/14 04:25:38;;;;;;;14.07;12.87;;;;;;;19.23;85.62;92900.31;5030962;28;20226;-79
2022/06/14 04:28:28;;;;;;;15.43;14.13;;;;;;;19.55;85.39;92902.22;5032752;28;20234;-78
2022/06/14 04:31:17;;;;;;;14.70;13.17;;;;;;;19.68;83.96;92897.75;5029706;28;20290;-78
2022/06/14 04:33:55;;;;;;;14.33;13.23;;;;;;;21.08;77.91;92885.59;5031913;28;20211;-79
2022/06/14 04:36:54;;;;;;;14.23;13.03;;;;;;;22.26;71.62;92905.91;5031339;28;20236;-78
2022/06/14 04:39:27;;;;;;;12.23;11.33;;;;;;;21.83;72.96;92905.94;5031351;28;20215;-78
2022/06/14 04:42:00;;;;;;;12.57;11.57;;;;;;;21.46;73.27;92885.91;5030616;28;20221;-78
2022/06/14 04:45:07;;;;;;;12.47;11.37;;;;;;;21.27;74.94;92909.66;5032478;28;20196;-78
2022/06/14 04:47:46;;;;;;;10.70;10.00;;;;;;;20.85;73.82;92916.34;5032004;28;20268;-78
2022/06/14 04:50:12;;;;;;;11.73;10.80;;;;;;;21.38;74.35;92935.44;5030595;28;20216;-78
2022/06/14 04:52:46;;;;;;;12.40;11.50;;;;;;;22.00;72.88;92926.88;5031271;28;20225;-78
2022/06/14 04:55:46;;;;;;;13.30;12.20;;;;;;;21.91;71.59;92936.91;5031279;28;20186;-78
2022/06/14 04:58:22;;;;;;;13.00;11.80;;;;;;;21.42;75.14;92930.19;5024262;28;20214;-78
2022/06/14 05:00:59;;;;;;;13.43;12.30;;;;;;;21.24;75.19;92910.34;5029495;28;20307;-78
2022/06/14 05:03:30;;;;;;;12.05;11.05;;;;;;;22.35;72.15;92932.34;5032176;28;20221;-78
2022/06/14 05:06:00;;;;;;;13.07;11.75;;;;;;;23.82;67.25;92942.91;5029874;28;21024;-78
2022/06/14 05:08:55;;;;;;;11.65;10.82;;;;;;;24.58;63.25;92950.81;5031020;28;20313;-79
2022/06/14 05:11:34;;;;;;;14.32;12.35;;;;;;;25.62;60.11;92945.53;5024418;28;20260;-79
2022/06/14 05:14:15;;;;;;;11.95;11.05;;;;;;;27.17;55.26;92936.41;5030618;28;20213;-79
2022/06/14 05:16:46;;;;;;;11.23;10.43;;;;;;;29.01;48.94;92947.47;5030179;28;20225;-79
2022/06/14 05:19:23;;;;;;;10.63;9.85;;;;;;;30.82;43.67;92966.97;5031424;28;20191;-79
2022/06/14 05:21:59;;;;;;;13.18;11.90;;;;;;;29.02;48.91;92967.81;5030316;28;20226;-79
2022/06/14 05:24:28;;;;;;;11.35;10.45;;;;;;;27.85;51.89;92939.09;5031089;28;20205;-79
2022/06/14 05:27:18;;;;;;;14.07;11.43;;;;;;;27.06;54.00;92954.31;5030451;28;20237;-78
2022/06/14 05:30:01;;;;;;;10.10;9.50;;;;;;;26.31;54.82;92955.56;5031651;28;20234;-78
2022/06/14 05:32:46;;;;;;;9.77;9.18;;;;;;;24.91;57.98;92953.66;5029615;28;20226;-79
2022/06/14 05:35:27;;;;;;;9.55;9.02;;;;;;;23.68;62.04;92956.72;5031647;28;20209;-79
2022/06/14 05:38:09;;;;;;;10.13;9.43;;;;;;;22.93;65.39;92928.81;5039028;28;20222;-79
2022/06/14 05:40:43;;;;;;;10.30;9.50;;;;;;;22.37;68.09;92943.44;5029718;28;20256;-79
2022/06/14 05:43:19;;;;;;;10.63;9.82;;;;;;;21.58;70.36;92947.75;5030598;28;20180;-79
2022/06/14 05:45:50;;;;;;;10.82;9.85;;;;;;;21.39;71.58;92955.56;5030939;28;20252;-78
2022/06/14 05:48:27;;;;;;;10.55;9.93;;;;;;;20.95;72.47;92931.84;5031218;28;20218;-78
2022/06/14 05:50:55;;;;;;;10.65;9.85;;;;;;;21.37;72.34;92965.75;5029339;28;20301;-79
2022/06/14 05:53:27;;;;;;;11.32;10.48;;;;;;;21.09;73.45;92966.81;5029356;28;20202;-78
2022/06/14 05:56:06;;;;;;;10.80;10.13;;;;;;;21.11;73.73;92952.06;5028022;28;20975;-78
2022/06/14 05:58:45;;;;;;;10.68;10.07;;;;;;;20.78;74.79;92969.22;5031121;28;20192;-78
2022/06/14 06:01:19;;;;;;;10.80;9.80;;;;;;;20.61;76.93;92978.94;5029107;28;20228;-78
2022/06/14 06:04:20;;;;;;;11.35;10.60;;;;;;;20.16;76.67;92962.31;5030163;28;20190;-78
2022/06/14 06:07:01;;;;;;;12.07;11.33;;;;;;;20.19;78.18;92985.50;5030085;28;20251;-79
2022/06/14 06:09:33;;;;;;;11.40;10.70;;;;;;;20.39;77.00;92976.69;5031094;28;20271;-79
2022/06/14 06:12:11;;;;;;;12.60;11.07;;;;;;;20.13;76.82;92962.97;5029070;28;20217;-79
2022/06/14 06:14:43;;;;;;;11.23;10.60;;;;;;;20.12;77.08;92979.94;5030827;28;20291;-78
2022/06/14 06:17:19;;;;;;;12.13;11.27;;;;;;;20.52;76.56;92970.31;5029298;28;20221;-78
2022/06/14 06:20:13;;;;;;;12.03;11.13;;;;;;;20.63;74.73;92974.09;5029532;28;20184;-78
2022/06/14 06:22:52;;;;;;;12.70;11.90;;;;;;;20.37;75.77;92978.16;5028977;28;20213;-79
2022/06/14 06:25:24;;;;;;;11.67;10.97;;;;;;;20.45;75.00;92969.31;5028100;28;20191;-79
2022/06/14 06:27:56;;;;;;;11.93;11.13;;;;;;;20.51;74.90;92981.25;5030209;28;20186;-78
2022/06/14 06:30:28;;;;;;;11.77;10.83;;;;;;;20.45;73.58;92969.31;5030210;28;20205;-79
2022/06/14 06:32:55;;;;;;;12.70;11.70;;;;;;;20.36;75.58;92995.94;5029116;28;20189;-78
2022/06/14 06:35:26;;;;;;;12.63;11.73;;;;;;;20.36;75.68;92969.41;5030012;28;20262;-79
2022/06/14 06:38:26;;;;;;;12.37;11.67;;;;;;;20.32;75.62;92983.66;5018561;28;20190;-78
2022/06/14 06:43:46;;;;;;;12.30;11.20;;;;;;;20.63;74.84;92978.63;5030277;28;20227;-78
2022/06/14 06:46:16;;;;;;;11.60;10.80;;;;;;;21.17;73.31;92992.47;5029132;28;20229;-79
2022/06/14 06:48:45;;;;;;;12.53;11.63;;;;;;;21.07;73.70;92995.56;5029474;28;20182;-78
2022/06/14 06:51:15;;;;;;;11.47;10.77;;;;;;;21.19;71.89;93000.84;5028429;28;20233;-78
2022/06/14 06:53:53;;;;;;;12.60;11.70;;;;;;;21.55;70.80;93001.59;5030319;28;20220;-79
2022/06/14 06:56:37;;;;;;;11.18;10.27;;;;;;;21.53;70.79;92997.69;5029513;28;20282;-79
2022/06/14 06:59:28;;;;;;;11.73;11.10;;;;;;;21.50;71.20;92998.38;5029293;28;20264;-78
2022/06/14 07:01:59;;;;;;;11.98;11.18;;;;;;;21.17;72.85;92995.13;5028637;28;20242;-78
2022/06/14 07:07:38;;;;;;;12.18;11.43;;;;;;;21.70;71.86;93016.03;5027893;28;20244;-78
2022/06/14 07:10:22;;;;;;;12.73;11.77;;;;;;;21.82;71.27;93016.81;5004468;28;20242;-78
2022/06/14 07:12:53;;;;;;;12.13;11.32;;;;;;;21.47;72.20;93025.63;5009841;28;20219;-79
2022/06/14 07:15:33;;;;;;;11.90;11.05;;;;;;;21.21;70.52;92985.38;5009170;28;20205;-79
2022/06/14 07:18:10;;;;;;;12.88;11.93;;;;;;;21.07;71.63;93011.50;5009786;28;20230;-79
2022/06/14 07:20:48;;;;;;;12.48;11.60;;;;;;;21.79;70.70;93038.00;5010594;28;20222;-79
2022/06/14 07:23:31;;;;;;;11.98;11.07;;;;;;;21.75;69.11;93021.16;5036338;28;20207;-78
2022/06/14 07:26:20;;;;;;;11.73;10.93;;;;;;;21.55;69.30;92990.16;5027833;28;20222;-78
2022/06/14 07:28:51;;;;;;;12.25;11.45;;;;;;;22.05;68.10;93030.38;5029137;28;20253;-79
2022/06/14 07:31:35;;;;;;;11.50;10.68;;;;;;;22.01;68.33;92998.34;5028059;28;20727;-79
2022/06/14 07:34:01;;;;;;;11.25;10.55;;;;;;;21.84;68.14;93008.50;5027122;28;20187;-79
2022/06/14 07:36:45;;;;;;;11.45;10.75;;;;;;;21.79;69.13;93032.69;5028366;28;20316;-78
2022/06/14 07:39:32;;;;;;;11.63;10.93;;;;;;;21.96;69.17;93016.44;5027328;28;20192;-78
2022/06/14 07:42:17;;;;;;;12.05;11.15;;;;;;;22.50;67.71;93041.47;5029167;28;21217;-78
2022/06/14 07:44:49;;;;;;;11.48;10.68;;;;;;;22.78;67.51;93020.91;5029081;28;20180;-78
2022/06/14 07:47:24;;;;;;;10.63;9.93;;;;;;;22.70;66.03;93037.03;5026850;28;20255;-79
2022/06/14 07:49:56;;;;;;;10.73;10.00;;;;;;;23.19;65.08;93041.69;5028640;28;20231;-79
2022/06/14 07:52:34;;;;;;;11.10;10.40;;;;;;;22.40;66.04;93036.63;5027772;28;20243;-79
2022/06/14 07:55:08;;;;;;;10.40;9.80;;;;;;;22.87;64.79;93042.03;5027091;28;20203;-79
2022/06/14 07:57:39;;;;;;;9.88;9.35;;;;;;;23.07;64.36;93028.47;5027137;28;20250;-79
2022/06/14 08:03:17;;;;;;;11.18;10.48;;;;;;;23.70;64.16;93042.50;5028419;28;20240;-78
2022/06/14 08:05:47;;;;;;;11.63;10.48;;;;;;;23.28;64.81;93042.31;5028274;28;20229;-79
2022/06/14 08:08:17;;;;;;;11.27;10.60;;;;;;;23.18;64.82;93050.78;5027974;28;20246;-78
2022/06/14 08:10:49;;;;;;;10.98;10.27;;;;;;;23.65;63.85;93032.88;5016107;28;20226;-79
2022/06/14 08:13:19;;;;;;;12.15;11.30;;;;;;;24.53;61.20;93039.22;5009960;28;20192;-78
2022/06/14 08:15:48;;;;;;;10.45;9.65;;;;;;;24.68;61.63;93043.72;5013401;28;20259;-79
2022/06/14 08:18:31;;;;;;;10.13;9.45;;;;;;;23.78;60.69;93004.94;5028741;28;20185;-79
2022/06/14 08:21:02;;;;;;;15.07;10.77;;;;;;;23.89;61.17;93053.19;5027698;28;20236;-79
2022/06/14 08:23:34;;;;;;;10.90;10.13;;;;;;;23.72;62.24;93045.59;5028367;28;20180;-79
2022/06/14 08:26:26;;;;;;;10.25;9.65;;;;;;;23.54;64.19;93029.19;5027442;28;20224;-78
2022/06/14 08:29:03;;;;;;;10.43;9.73;;;;;;;24.36;62.58;93039.66;5010568;28;20205;-78
2022/06/14 08:31:57;;;;;;;10.77;9.88;;;;;;;24.58;61.23;93041.59;5027340;28;20233;-79
2022/06/14 08:34:41;;;;;;;10.45;9.55;;;;;;;24.48;61.37;93036.84;5028441;28;20179;-79
2022/06/14 08:37:20;;;;;;;11.30;10.52;;;;;;;23.63;61.96;93005.78;5027379;28;20248;-79
2022/06/14 08:40:01;;;;;;;11.32;10.35;;;;;;;23.48;61.91;93008.50;5026950;28;20685;-78
2022/06/14 08:42:39;;;;;;;11.18;10.32;;;;;;;23.73;61.05;93031.13;5028088;28;20237;-78
2022/06/14 08:45:18;;;;;;;11.18;10.40;;;;;;;23.45;62.88;93012.63;5029206;28;20193;-78
2022/06/14 08:48:26;;;;;;;11.02;10.30;;;;;;;23.56;63.01;93028.84;5030522;28;20232;-78
2022/06/14 08:51:03;;;;;;;11.43;10.48;;;;;;;23.72;61.35;93025.00;5018137;28;20229;-79
2022/06/14 08:53:52;;;;;;;10.77;10.15;;;;;;;24.20;60.30;93036.31;5031935;28;20277;-79
2022/06/14 08:56:37;;;;;;;10.90;10.10;;;;;;;24.25;61.54;93028.00;5030580;28;20242;-79
2022/06/14 08:59:25;;;;;;;10.50;9.70;;;;;;;23.72;61.48;93027.69;5031857;28;20188;-79
2022/06/14 09:02:09;;;;;;;10.43;9.73;;;;;;;24.08;61.06;93031.88;5030801;28;20301;-79
2022/06/14 09:05:02;;;;;;;10.32;9.57;;;;;;;24.23;59.57;93031.03;5029482;28;20204;-78
2022/06/14 09:07:52;;;;;;;10.52;9.82;;;;;;;23.61;62.39;93026.66;5030507;28;20212;-79
2022/06/14 09:10:26;;;;;;;10.18;9.48;;;;;;;23.60;60.90;93024.34;5031162;28;20218;-79
2022/06/14 09:12:58;;;;;;;10.95;10.05;;;;;;;23.35;63.16;93018.50;5031133;28;20197;-78
2022/06/14 09:15:46;;;;;;;10.75;10.05;;;;;;;23.88;62.50;93021.53;5029338;28;20200;-79
2022/06/14 09:18:41;;;;;;;10.75;10.07;;;;;;;23.43;61.95;93001.53;5030859;28;20181;-79
2022/06/14 09:21:16;;;;;;;9.55;8.93;;;;;;;23.57;58.89;93025.84;5030351;28;20226;-79
2022/06/14 09:24:00;;;;;;;10.20;9.45;;;;;;;23.57;59.10;93020.50;5030340;28;20190;-78
2022/06/14 09:26:34;;;;;;;10.50;9.80;;;;;;;23.70;60.84;93021.91;5031439;28;20229;-78
2022/06/14 09:29:22;;;;;;;11.05;10.20;;;;;;;23.64;62.50;93019.88;5029200;28;20437;-78
2022/06/14 09:32:18;;;;;;;11.13;10.10;;;;;;;23.78;62.62;93028.94;5031111;28;20233;-78
2022/06/14 09:35:00;;;;;;;10.70;9.90;;;;;;;23.51;61.42;93011.25;5030897;28;20191;-78
2022/06/14 09:37:48;;;;;;;9.75;9.13;;;;;;;23.58;62.75;93011.38;5030614;28;20225;-79
2022/06/14 09:40:47;;;;;;;11.02;10.20;;;;;;;23.17;62.78;93009.28;5030339;28;20265;-78
2022/06/14 09:43:50;;;;;;;13.80;10.43;;;;;;;23.11;64.29;93015.22;5030756;28;20243;-79
2022/06/14 09:46:43;;;;;;;9.30;8.75;;;;;;;23.71;61.75;93018.13;5028408;28;20287;-79
2022/06/14 09:49:45;;;;;;;10.20;9.60;;;;;;;23.93;60.61;93021.22;5030977;28;20186;-79
2022/06/14 09:52:17;;;;;;;10.40;9.60;;;;;;;24.09;61.29;93019.31;5029437;28;20225;-79
2022/06/14 09:55:10;;;;;;;9.50;9.00;;;;;;;23.56;61.48;93031.50;5029541;28;20170;-78
2022/06/14 09:58:22;;;;;;;10.68;9.80;;;;;;;23.94;59.58;92991.53;5029532;28;20225;-78
2022/06/14 10:00:54;;;;;;;10.32;9.63;;;;;;;24.09;58.25;93017.41;5028678;28;20221;-78
2022/06/14 10:03:38;;;;;;;11.45;10.65;;;;;;;24.54;59.61;93022.06;5030283;28;20184;-78
2022/06/14 10:06:40;;;;;;;9.90;9.32;;;;;;;23.83;61.59;93014.56;5029734;28;20227;-78
2022/06/14 10:09:24;;;;;;;11.27;10.57;;;;;;;23.91;60.08;93013.56;5029863;28;20293;-78
2022/06/14 10:12:04;;;;;;;10.23;9.63;;;;;;;23.59;61.02;93012.94;5030012;28;20452;-78
2022/06/14 10:14:38;;;;;;;10.50;9.48;;;;;;;23.13;62.85;92997.03;5030895;28;20193;-78
2022/06/14 10:17:13;;;;;;;11.27;10.45;;;;;;;22.52;61.98;93012.66;5029679;28;20270;-78
2022/06/14 10:20:21;;;;;;;10.45;9.75;;;;;;;22.62;57.50;93014.78;5030336;28;20192;-78
2022/06/14 10:23:16;;;;;;;10.90;10.00;;;;;;;21.92;59.08;93012.91;5002438;28;20257;-78
2022/06/14 10:29:05;;;;;;;9.68;9.07;;;;;;;21.97;57.03;93023.31;5030361;28;20223;-78
2022/06/14 10:32:16;;;;;;;9.50;8.85;;;;;;;21.54;57.71;93021.28;5029626;28;20236;-79
2022/06/14 10:34:49;;;;;;;10.48;9.77;;;;;;;21.18;59.91;93017.91;5005409;28;20189;-78
2022/06/14 10:37:29;;;;;;;10.93;9.85;;;;;;;21.13;61.63;93037.50;5028338;28;20261;-78
2022/06/14 10:40:36;;;;;;;9.90;9.30;;;;;;;21.46;60.77;93026.72;5030250;28;20188;-79
2022/06/14 10:43:26;;;;;;;9.55;9.02;;;;;;;21.59;63.83;93038.88;4950010;29;20339;-78
2022/06/14 10:45:55;;;;;;;8.80;8.23;;;;;;;20.82;64.93;93037.25;5025382;28;20347;-79
2022/06/14 10:48:21;;;;;;;9.77;9.27;;;;;;;21.05;65.78;93041.03;5029707;28;20179;-78
2022/06/14 10:50:47;;;;;;;10.98;10.27;;;;;;;20.48;68.50;93037.63;5028321;28;20233;-78
2022/06/14 10:53:18;;;;;;;9.90;9.10;;;;;;;20.09;74.00;93033.63;5030535;28;20229;-79
2022/06/14 10:56:09;;;;;;;10.90;10.18;;;;;;;20.86;73.41;93035.47;5028652;28;20237;-78
2022/06/14 10:58:56;;;;;;;10.53;9.60;;;;;;;20.06;73.17;93044.09;5029184;28;20208;-78
2022/06/14 11:01:33;;;;;;;12.50;11.50;;;;;;;19.88;87.34;93043.47;5028814;28;20237;-79
2022/06/14 11:04:02;;;;;;;11.33;10.63;;;;;;;20.24;84.07;93048.94;5028967;28;20256;-78
2022/06/14 11:06:52;;;;;;;13.03;12.10;;;;;;;19.84;92.14;93053.16;5028548;28;20233;-79
2022/06/14 11:09:42;;;;;;;12.30;11.30;;;;;;;19.23;93.45;93040.63;5026356;28;20261;-78
2022/06/14 11:12:47;;;;;;;13.27;12.27;;;;;;;19.31;97.30;93039.06;5028008;28;20226;-78
2022/06/14 11:15:16;;;;;;;11.93;11.03;;;;;;;19.35;98.64;93024.09;5024962;28;20268;-78
2022/06/14 11:18:12;;;;;;;12.87;11.70;;;;;;;19.71;93.70;93040.16;5027674;28;20222;-77
2022/06/14 11:21:00;;;;;;;12.63;11.57;;;;;;;19.16;95.80;93035.03;5024923;28;20244;-78
2022/06/14 11:23:42;;;;;;;10.77;10.17;;;;;;;18.80;80.79;93022.31;5009274;28;20187;-78
2022/06/14 11:26:36;;;;;;;10.57;9.97;;;;;;;19.35;86.19;93042.63;5008494;28;20219;-79
2022/06/14 11:29:23;;;;;;;11.40;10.60;;;;;;;18.72;91.28;93056.75;4984098;28;20348;-79
2022/06/14 11:32:29;;;;;;;11.50;10.40;;;;;;;18.24;91.95;93027.16;5008013;28;20227;-79
2022/06/14 11:35:13;;;;;;;13.10;11.63;;;;;;;18.01;100.00;92994.09;5008722;28;20188;-79
2022/06/14 11:38:18;;;;;;;11.20;10.50;;;;;;;18.60;99.21;93038.13;5008472;28;20215;-80
2022/06/14 11:40:52;;;;;;;12.97;11.87;;;;;;;18.10;100.00;92986.94;5011478;28;20318;-79
2022/06/14 11:43:32;;;;;;;12.50;11.40;;;;;;;18.14;100.00;93008.97;5029535;28;20242;-79
2022/06/14 11:46:15;;;;;;;11.60;10.67;;;;;;;18.28;100.00;93005.06;5027761;28;20229;-79
2022/06/14 11:48:52;;;;;;;11.63;10.83;;;;;;;18.61;100.00;92997.38;5029041;28;20206;-79
2022/06/14 11:51:36;;;;;;;10.53;9.83;;;;;;;19.04;100.00;93001.34;5027541;28;20223;-79
2022/06/14 11:54:16;;;;;;;11.27;10.57;;;;;;;19.35;100.00;92994.97;5028750;28;20212;-79
2022/06/14 11:56:51;;;;;;;11.10;10.40;;;;;;;20.50;94.20;93001.69;5027202;28;20266;-80
2022/06/14 11:59:25;;;;;;;10.63;9.93;;;;;;;21.47;89.65;92996.38;5029102;28;20196;-79
2022/06/14 12:02:29;;;;;;;12.40;11.70;;;;;;;21.97;91.93;92997.50;5026702;28;20225;-80
2022/06/14 12:05:09;;;;;;;11.27;10.57;;;;;;;21.75;85.50;92994.56;5028843;28;20183;-79
2022/06/14 12:07:41;;;;;;;11.65;10.70;;;;;;;22.49;87.05;92986.66;5026960;28;20248;-79
2022/06/14 12:10:28;;;;;;;11.80;10.90;;;;;;;23.42;80.53;92981.34;5028386;28;20214;-79
2022/06/14 12:12:58;;;;;;;10.88;10.10;;;;;;;23.08;68.96;92991.94;5029430;28;20223;-79
2022/06/14 12:15:26;;;;;;;11.18;10.27;;;;;;;23.81;64.42;93000.03;5026833;28;20184;-79
2022/06/14 12:17:55;;;;;;;10.95;10.32;;;;;;;24.27;65.64;92999.06;5028132;28;20186;-79
2022/06/14 12:20:24;;;;;;;10.43;9.82;;;;;;;23.64;69.59;92988.66;5031486;28;20248;-79
2022/06/14 12:23:12;;;;;;;10.95;10.25;;;;;;;24.19;66.82;92992.81;5032401;28;20186;-79
2022/06/14 12:28:47;;;;;;;10.40;9.80;;;;;;;24.33;72.34;92987.75;5032993;28;20512;-79
2022/06/14 12:31:38;;;;;;;10.45;9.60;;;;;;;23.46;64.73;92992.06;5031122;28;20237;-78
2022/06/14 12:34:27;;;;;;;8.50;8.05;;;;;;;22.69;63.13;92991.03;5031267;28;20240;-78